sensor_id;sensor_type;location;lat;lon;timestamp;temperature;humidity
2439;DHT22;14509;47.992;7.848;2022-11-06T18:23:06;17.10;37.70
2439;DHT22;14509;47.992;7.848;2022-11-06T18:25:08;17.10;38.30
2439;DHT22;14509;47.992;7.848;2022-11-06T18:27:10;17.10;38.60
2439;DHT22;14509;47.992;7.848;2022-11-06T18:29:13;17.30;38.90
2439;DHT22;14509;47.992;7.848;2022-11-06T18:31:15;17.10;38.50
2439;DHT22;14509;47.992;7.848;2022-11-06T18:33:17;17.10;38.60
2439;DHT22;14509;47.992;7.848;2022-11-06T18:35:19;17.10;38.10
2439;DHT22;14509;47.992;7.848;2022-11-06T18:37:21;17.10;37.60
2439;DHT22;14509;47.992;7.848;2022-11-06T18:39:26;17.00;37.00
2439;DHT22;14509;47.992;7.848;2022-11-06T18:41:28;17.00;36.90
2439;DHT22;14509;47.992;7.848;2022-11-06T18:43:30;16.90;37.70
2439;DHT22;14509;47.992;7.848;2022-11-06T18:45:32;16.80;39.30
2439;DHT22;14509;47.992;7.848;2022-11-06T18:47:37;16.80;40.40
2439;DHT22;14509;47.992;7.848;2022-11-06T18:49:39;16.70;39.90
2439;DHT22;14509;47.992;7.848;2022-11-06T18:51:41;16.60;40.40
2439;DHT22;14509;47.992;7.848;2022-11-06T18:53:43;16.40;40.80
2439;DHT22;14509;47.992;7.848;2022-11-06T18:55:46;16.30;40.60
2439;DHT22;14509;47.992;7.848;2022-11-06T18:57:48;16.30;41.00
2439;DHT22;14509;47.992;7.848;2022-11-06T18:59:50;16.40;41.00
2439;DHT22;14509;47.992;7.848;2022-11-06T19:01:52;16.30;40.80
2439;DHT22;14509;47.992;7.848;2022-11-06T19:03:54;16.40;40.80
2439;DHT22;14509;47.992;7.848;2022-11-06T19:05:56;16.50;40.70
2439;DHT22;14509;47.992;7.848;2022-11-06T19:07:58;16.70;40.70
2439;DHT22;14509;47.992;7.848;2022-11-06T19:10:00;16.70;40.60
2439;DHT22;14509;47.992;7.848;2022-11-06T19:12:03;16.80;40.60
2439;DHT22;14509;47.992;7.848;2022-11-06T19:14:05;16.90;40.60
2439;DHT22;14509;47.992;7.848;2022-11-06T19:16:08;16.90;40.00
2439;DHT22;14509;47.992;7.848;2022-11-06T19:18:11;17.00;39.90
2439;DHT22;14509;47.992;7.848;2022-11-06T19:20:13;17.00;39.80
2439;DHT22;14509;47.992;7.848;2022-11-06T19:22:15;17.00;39.50
2439;DHT22;14509;47.992;7.848;2022-11-06T19:24:18;17.00;39.50
2439;DHT22;14509;47.992;7.848;2022-11-06T19:26:20;17.10;39.50
2439;DHT22;14509;47.992;7.848;2022-11-06T19:28:24;17.10;39.60
2439;DHT22;14509;47.992;7.848;2022-11-06T19:30:26;17.10;39.10
2439;DHT22;14509;47.992;7.848;2022-11-06T19:32:27;17.40;39.20
2439;DHT22;14509;47.992;7.848;2022-11-06T19:34:29;17.10;38.90
2439;DHT22;14509;47.992;7.848;2022-11-06T19:36:32;17.10;38.80
2439;DHT22;14509;47.992;7.848;2022-11-06T19:38:34;17.20;38.70
2439;DHT22;14509;47.992;7.848;2022-11-06T19:40:36;17.30;38.60
2439;DHT22;14509;47.992;7.848;2022-11-06T19:42:38;17.30;38.50
2439;DHT22;14509;47.992;7.848;2022-11-06T19:44:42;17.40;38.50
2439;DHT22;14509;47.992;7.848;2022-11-06T19:46:44;17.40;38.60
2439;DHT22;14509;47.992;7.848;2022-11-06T19:48:46;17.40;38.60
2439;DHT22;14509;47.992;7.848;2022-11-06T19:50:49;17.40;38.60
2439;DHT22;14509;47.992;7.848;2022-11-06T19:52:51;17.50;38.80
2439;DHT22;14509;47.992;7.848;2022-11-06T19:54:53;17.60;38.90
2439;DHT22;14509;47.992;7.848;2022-11-06T19:56:55;17.50;38.90
2439;DHT22;14509;47.992;7.848;2022-11-06T19:58:57;17.80;39.00
2439;DHT22;14509;47.992;7.848;2022-11-06T20:01:05;17.70;38.80
2439;DHT22;14509;47.992;7.848;2022-11-06T20:03:07;17.70;38.70
2439;DHT22;14509;47.992;7.848;2022-11-06T20:05:09;17.70;38.70
2439;DHT22;14509;47.992;7.848;2022-11-06T20:07:11;17.70;38.60
2439;DHT22;14509;47.992;7.848;2022-11-06T20:09:13;17.80;38.40
2439;DHT22;14509;47.992;7.848;2022-11-06T20:11:15;17.80;37.80
2439;DHT22;14509;47.992;7.848;2022-11-06T20:13:17;18.00;38.10
2439;DHT22;14509;47.992;7.848;2022-11-06T20:15:19;17.80;37.70
2439;DHT22;14509;47.992;7.848;2022-11-06T20:17:26;17.90;37.90
2439;DHT22;14509;47.992;7.848;2022-11-06T20:19:31;18.00;37.90
2439;DHT22;14509;47.992;7.848;2022-11-06T20:21:36;17.90;37.80
2439;DHT22;14509;47.992;7.848;2022-11-06T20:23:38;18.10;38.00
2439;DHT22;14509;47.992;7.848;2022-11-06T20:25:40;18.20;38.10
2439;DHT22;14509;47.992;7.848;2022-11-06T20:27:42;18.20;37.90
2439;DHT22;14509;47.992;7.848;2022-11-06T20:29:45;18.20;38.00
2439;DHT22;14509;47.992;7.848;2022-11-06T20:31:50;18.20;38.10
2439;DHT22;14509;47.992;7.848;2022-11-06T20:33:53;18.10;38.00
2439;DHT22;14509;47.992;7.848;2022-11-06T20:35:57;18.10;38.00
2439;DHT22;14509;47.992;7.848;2022-11-06T20:37:59;18.10;38.00
2439;DHT22;14509;47.992;7.848;2022-11-06T20:40:01;18.10;38.10
2439;DHT22;14509;47.992;7.848;2022-11-06T20:42:03;18.10;38.10
2439;DHT22;14509;47.992;7.848;2022-11-06T20:44:05;18.10;37.80
2439;DHT22;14509;47.992;7.848;2022-11-06T20:46:08;18.00;37.60
2439;DHT22;14509;47.992;7.848;2022-11-06T20:48:10;18.10;37.90
2439;DHT22;14509;47.992;7.848;2022-11-06T20:50:14;18.10;37.70
2439;DHT22;14509;47.992;7.848;2022-11-06T20:52:20;18.20;37.80
2439;DHT22;14509;47.992;7.848;2022-11-06T20:54:22;18.20;37.60
2439;DHT22;14509;47.992;7.848;2022-11-06T20:56:25;18.20;37.50
2439;DHT22;14509;47.992;7.848;2022-11-06T20:58:29;18.30;37.60
2439;DHT22;14509;47.992;7.848;2022-11-06T21:00:31;18.30;37.40
2439;DHT22;14509;47.992;7.848;2022-11-06T21:02:33;18.40;37.50
2439;DHT22;14509;47.992;7.848;2022-11-06T21:04:35;18.40;37.40
2439;DHT22;14509;47.992;7.848;2022-11-06T21:06:38;18.40;37.20
2439;DHT22;14509;47.992;7.848;2022-11-06T21:08:41;18.50;37.40
2439;DHT22;14509;47.992;7.848;2022-11-06T21:10:52;18.50;37.20
2439;DHT22;14509;47.992;7.848;2022-11-06T21:12:54;18.50;37.00
2439;DHT22;14509;47.992;7.848;2022-11-06T21:14:58;18.50;37.20
2439;DHT22;14509;47.992;7.848;2022-11-06T21:17:00;18.50;37.40
2439;DHT22;14509;47.992;7.848;2022-11-06T21:19:03;18.50;38.00
2439;DHT22;14509;47.992;7.848;2022-11-06T21:21:07;18.50;38.50
2439;DHT22;14509;47.992;7.848;2022-11-06T21:23:11;18.40;39.00
2439;DHT22;14509;47.992;7.848;2022-11-06T21:25:13;18.30;39.20
2439;DHT22;14509;47.992;7.848;2022-11-06T21:27:14;18.20;39.40
2439;DHT22;14509;47.992;7.848;2022-11-06T21:29:16;18.00;39.30
2439;DHT22;14509;47.992;7.848;2022-11-06T21:31:20;17.90;40.00
2439;DHT22;14509;47.992;7.848;2022-11-06T21:33:23;17.80;42.70
2439;DHT22;14509;47.992;7.848;2022-11-06T21:35:25;17.60;44.20
2439;DHT22;14509;47.992;7.848;2022-11-06T21:37:33;17.40;44.00
2439;DHT22;14509;47.992;7.848;2022-11-06T21:39:53;17.10;44.50
2439;DHT22;14509;47.992;7.848;2022-11-06T21:41:55;16.70;45.20
2439;DHT22;14509;47.992;7.848;2022-11-06T21:43:57;16.60;46.00
2439;DHT22;14509;47.992;7.848;2022-11-06T21:46:02;16.50;46.90
2439;DHT22;14509;47.992;7.848;2022-11-06T21:48:05;16.30;48.30
2439;DHT22;14509;47.992;7.848;2022-11-06T21:50:10;16.20;48.90
2439;DHT22;14509;47.992;7.848;2022-11-06T21:52:18;16.10;49.20
2439;DHT22;14509;47.992;7.848;2022-11-06T21:54:38;16.10;49.80
2439;DHT22;14509;47.992;7.848;2022-11-06T21:56:58;16.00;49.60
2439;DHT22;14509;47.992;7.848;2022-11-06T21:59:01;15.90;49.80
2439;DHT22;14509;47.992;7.848;2022-11-06T22:01:14;15.80;49.90
2439;DHT22;14509;47.992;7.848;2022-11-06T22:03:17;15.80;49.90
2439;DHT22;14509;47.992;7.848;2022-11-06T22:05:19;15.90;50.20
2439;DHT22;14509;47.992;7.848;2022-11-06T22:07:21;15.90;50.30
2439;DHT22;14509;47.992;7.848;2022-11-06T22:09:23;15.90;50.50
2439;DHT22;14509;47.992;7.848;2022-11-06T22:11:34;15.90;50.70
2439;DHT22;14509;47.992;7.848;2022-11-06T22:13:44;15.90;50.60
2439;DHT22;14509;47.992;7.848;2022-11-06T22:15:46;15.80;50.60
2439;DHT22;14509;47.992;7.848;2022-11-06T22:17:51;15.90;50.60
2439;DHT22;14509;47.992;7.848;2022-11-06T22:19:55;15.90;50.60
2439;DHT22;14509;47.992;7.848;2022-11-06T22:21:59;15.90;51.00
2439;DHT22;14509;47.992;7.848;2022-11-06T22:24:03;16.00;51.10
2439;DHT22;14509;47.992;7.848;2022-11-06T22:26:11;16.00;51.20
2439;DHT22;14509;47.992;7.848;2022-11-06T22:28:16;15.90;51.10
2439;DHT22;14509;47.992;7.848;2022-11-06T22:30:24;15.90;51.00
2439;DHT22;14509;47.992;7.848;2022-11-06T22:32:28;16.20;51.10
2439;DHT22;14509;47.992;7.848;2022-11-06T22:34:33;16.10;51.20
2439;DHT22;14509;47.992;7.848;2022-11-06T22:36:41;16.10;51.20
2439;DHT22;14509;47.992;7.848;2022-11-06T22:38:45;16.00;51.50
2439;DHT22;14509;47.992;7.848;2022-11-06T22:40:55;16.00;51.50
2439;DHT22;14509;47.992;7.848;2022-11-06T22:42:57;16.00;51.70
2439;DHT22;14509;47.992;7.848;2022-11-06T22:44:59;16.20;52.20
2439;DHT22;14509;47.992;7.848;2022-11-06T22:47:05;16.10;52.40
2439;DHT22;14509;47.992;7.848;2022-11-06T22:49:09;16.00;52.60
2439;DHT22;14509;47.992;7.848;2022-11-06T22:51:14;16.10;52.50
2439;DHT22;14509;47.992;7.848;2022-11-06T22:53:17;16.20;52.30
2439;DHT22;14509;47.992;7.848;2022-11-06T22:55:22;16.20;52.00
2439;DHT22;14509;47.992;7.848;2022-11-06T22:57:26;16.40;52.00
2439;DHT22;14509;47.992;7.848;2022-11-06T22:59:30;16.20;51.70
2439;DHT22;14509;47.992;7.848;2022-11-06T23:01:38;16.50;51.70
2439;DHT22;14509;47.992;7.848;2022-11-06T23:03:43;16.60;51.50
2439;DHT22;14509;47.992;7.848;2022-11-06T23:05:45;16.60;51.30
2439;DHT22;14509;47.992;7.848;2022-11-06T23:07:47;16.80;51.20
2439;DHT22;14509;47.992;7.848;2022-11-06T23:09:49;16.80;51.00
2439;DHT22;14509;47.992;7.848;2022-11-06T23:11:51;16.90;50.60
2439;DHT22;14509;47.992;7.848;2022-11-06T23:13:53;16.90;50.50
2439;DHT22;14509;47.992;7.848;2022-11-06T23:16:01;16.90;50.50
2439;DHT22;14509;47.992;7.848;2022-11-06T23:18:03;16.80;50.70
2439;DHT22;14509;47.992;7.848;2022-11-06T23:20:08;16.80;50.70
2439;DHT22;14509;47.992;7.848;2022-11-06T23:22:10;16.80;50.60
2439;DHT22;14509;47.992;7.848;2022-11-06T23:24:29;16.70;50.60
2439;DHT22;14509;47.992;7.848;2022-11-06T23:26:31;16.70;50.70
2439;DHT22;14509;47.992;7.848;2022-11-06T23:28:33;16.70;50.70
2439;DHT22;14509;47.992;7.848;2022-11-06T23:30:35;16.70;50.50
2439;DHT22;14509;47.992;7.848;2022-11-06T23:32:38;16.70;50.40
2439;DHT22;14509;47.992;7.848;2022-11-06T23:34:40;17.00;50.40
2439;DHT22;14509;47.992;7.848;2022-11-06T23:36:43;16.90;50.00
2439;DHT22;14509;47.992;7.848;2022-11-06T23:38:45;16.90;49.90
2439;DHT22;14509;47.992;7.848;2022-11-06T23:40:47;17.00;49.70
2439;DHT22;14509;47.992;7.848;2022-11-06T23:42:49;17.10;49.40
2439;DHT22;14509;47.992;7.848;2022-11-06T23:44:54;17.30;49.50
2439;DHT22;14509;47.992;7.848;2022-11-06T23:47:13;17.30;49.20
2439;DHT22;14509;47.992;7.848;2022-11-06T23:49:15;17.30;48.90
2439;DHT22;14509;47.992;7.848;2022-11-06T23:51:17;17.40;48.80
2439;DHT22;14509;47.992;7.848;2022-11-06T23:53:20;17.50;48.60
2439;DHT22;14509;47.992;7.848;2022-11-06T23:55:22;17.60;48.40
2439;DHT22;14509;47.992;7.848;2022-11-06T23:57:24;17.60;47.90
2439;DHT22;14509;47.992;7.848;2022-11-06T23:59:25;17.60;47.80
